Time;durP1;ratioP1;P1;durP2;ratioP2;P2;SDS_P1;SDS_P2;PMS_P1;PMS_P2;Temp;Humidity;BMP_temperature;BMP_pressure;BME280_temperature;BME280_humidity;BME280_pressure;Samples;Min_cycle;Max_cycle;Signal;HPM_P1;HPM_P2
2023/03/04 00:01:14;;;;;;;24.00;13.50;;;;;;;6.12;93.28;98637.25;5099406;28;20473;-92
2023/03/04 00:03:40;;;;;;;22.55;12.63;;;;;;;5.85;93.98;98607.56;5095744;28;20050;-92
2023/03/04 00:06:06;;;;;;;23.08;13.32;;;;;;;6.01;94.02;98629.44;5097336;28;20036;-92
2023/03/04 00:08:32;;;;;;;20.30;12.93;;;;;;;6.11;93.81;98644.25;5097721;28;20046;-93
2023/03/04 00:10:58;;;;;;;20.20;13.20;;;;;;;6.05;93.50;98625.00;5097533;28;20036;-92
2023/03/04 00:13:26;;;;;;;19.25;11.02;;;;;;;6.03;93.52;98617.09;5095098;28;20439;-93
2023/03/04 00:15:52;;;;;;;16.98;10.63;;;;;;;6.01;93.70;98624.16;5095157;28;20040;-91
2023/03/04 00:18:19;;;;;;;18.13;10.35;;;;;;;6.13;93.79;98631.06;5093543;28;20043;-92
2023/03/04 00:20:45;;;;;;;18.95;9.85;;;;;;;6.14;93.38;98630.19;5094190;28;20040;-91
2023/03/04 00:23:11;;;;;;;19.95;9.55;;;;;;;6.30;93.21;98629.09;5076859;28;20093;-93
2023/03/04 00:25:37;;;;;;;16.67;8.80;;;;;;;6.46;92.54;98639.47;5078248;28;20048;-93
2023/03/04 00:28:04;;;;;;;17.15;9.07;;;;;;;6.54;91.55;98641.13;5084241;28;20403;-91
2023/03/04 00:30:31;;;;;;;17.65;8.60;;;;;;;6.56;91.06;98619.97;5083746;28;20040;-92
2023/03/04 00:32:57;;;;;;;14.93;7.80;;;;;;;6.68;90.58;98640.94;5084604;28;20067;-90
2023/03/04 00:35:23;;;;;;;22.45;8.68;;;;;;;6.54;91.04;98630.53;5082175;28;20078;-93
2023/03/04 00:37:49;;;;;;;14.50;7.90;;;;;;;6.61;90.74;98647.19;5085451;28;20036;-92
2023/03/04 00:40:15;;;;;;;17.17;9.02;;;;;;;6.47;90.76;98628.88;5086603;28;20040;-92
2023/03/04 00:42:41;;;;;;;14.98;7.43;;;;;;;6.37;90.62;98614.03;5082487;28;20074;-93
2023/03/04 00:45:08;;;;;;;14.85;8.38;;;;;;;6.37;90.92;98611.41;5083105;28;20059;-92
2023/03/04 00:47:35;;;;;;;14.07;8.02;;;;;;;6.40;91.31;98637.78;5079320;28;20079;-92
2023/03/04 00:50:01;;;;;;;16.65;8.45;;;;;;;6.29;91.09;98610.63;5081919;28;20040;-92
2023/03/04 00:52:27;;;;;;;14.15;7.97;;;;;;;6.38;91.54;98629.88;5085448;28;20127;-93
2023/03/04 00:54:53;;;;;;;14.02;8.00;;;;;;;6.35;91.30;98613.19;5084085;28;20072;-92
2023/03/04 00:57:19;;;;;;;14.23;8.05;;;;;;;6.41;90.71;98614.88;5078981;28;20036;-92
2023/03/04 00:59:45;;;;;;;16.13;7.45;;;;;;;6.47;90.22;98617.47;5084410;28;20067;-93
2023/03/04 01:02:11;;;;;;;15.00;7.47;;;;;;;6.34;90.20;98591.19;5082802;28;20543;-92
2023/03/04 01:04:40;;;;;;;13.85;7.95;;;;;;;6.32;90.57;98594.75;5083089;28;20044;-92
2023/03/04 01:07:06;;;;;;;18.33;8.05;;;;;;;6.32;91.16;98600.91;5081899;28;20505;-94
2023/03/04 01:09:32;;;;;;;16.33;8.68;;;;;;;6.33;91.16;98602.66;5084491;28;20039;-92
2023/03/04 01:11:58;;;;;;;15.63;8.50;;;;;;;6.30;91.63;98613.25;5079077;28;20481;-92
2023/03/04 01:14:24;;;;;;;15.40;8.80;;;;;;;6.21;91.43;98584.31;5079069;28;20051;-93
2023/03/04 01:16:50;;;;;;;16.88;8.73;;;;;;;6.30;91.61;98605.31;5081008;28;20047;-92
2023/03/04 01:19:16;;;;;;;18.58;9.15;;;;;;;6.22;91.64;98599.25;5085063;28;20064;-92
2023/03/04 01:21:44;;;;;;;17.55;9.68;;;;;;;6.20;92.04;98590.47;5079132;28;20052;-93
2023/03/04 01:24:10;;;;;;;17.63;9.88;;;;;;;6.29;91.96;98611.50;5081493;28;20044;-91
2023/03/04 01:26:35;;;;;;;19.27;11.18;;;;;;;6.27;92.53;98612.44;5084618;28;20451;-93
2023/03/04 01:29:01;;;;;;;21.35;10.40;;;;;;;5.99;93.02;98578.44;5080915;28;20039;-92
2023/03/04 01:31:27;;;;;;;23.50;11.90;;;;;;;6.13;93.22;98602.88;5080966;28;20534;-90
2023/03/04 01:33:53;;;;;;;21.17;11.18;;;;;;;6.10;93.26;98594.16;5080032;28;20071;-92
2023/03/04 01:36:19;;;;;;;19.60;10.30;;;;;;;6.21;93.34;98610.72;5082693;28;20040;-92
2023/03/04 01:38:46;;;;;;;19.80;11.20;;;;;;;6.13;93.71;98594.09;5079824;28;20066;-92
2023/03/04 01:41:16;;;;;;;23.02;12.32;;;;;;;5.95;93.90;98576.72;5082839;28;20093;-92
2023/03/04 01:43:42;;;;;;;23.63;11.88;;;;;;;6.19;93.37;98601.94;5083456;28;20051;-92
2023/03/04 01:46:11;;;;;;;23.95;12.23;;;;;;;6.15;93.80;98600.25;5074512;28;20040;-91
2023/03/04 01:48:38;;;;;;;24.75;11.95;;;;;;;5.90;93.78;98563.56;5080370;28;20494;-91
2023/03/04 01:51:05;;;;;;;23.95;13.48;;;;;;;6.12;94.00;98606.44;5079984;28;20404;-93
2023/03/04 01:53:32;;;;;;;25.67;14.10;;;;;;;5.86;94.23;98572.38;5081466;28;20503;-93
2023/03/04 01:56:11;;;;;;;22.45;12.05;;;;;;;5.90;94.54;98591.72;5081452;28;20468;-91
2023/03/04 01:58:37;;;;;;;23.73;12.75;;;;;;;5.96;94.72;98599.56;5079297;28;20088;-92
2023/03/04 02:01:03;;;;;;;22.63;11.90;;;;;;;5.93;94.84;98586.38;5078753;28;20064;-93
2023/03/04 02:03:29;;;;;;;22.35;12.18;;;;;;;5.90;94.75;98592.59;5082458;28;20048;-93
2023/03/04 02:05:55;;;;;;;21.63;11.75;;;;;;;5.80;94.84;98582.16;5085924;28;20093;-92
2023/03/04 02:08:23;;;;;;;21.38;11.20;;;;;;;5.76;95.19;98578.66;5087884;28;20085;-93
2023/03/04 02:10:50;;;;;;;25.77;13.00;;;;;;;5.57;95.74;98556.84;5085528;28;20028;-93
2023/03/04 02:13:17;;;;;;;22.23;11.25;;;;;;;5.68;96.66;98594.59;5087109;28;20487;-92
2023/03/04 02:15:45;;;;;;;24.55;13.27;;;;;;;5.58;96.93;98577.09;5074084;28;20059;-92
2023/03/04 02:18:15;;;;;;;23.80;12.85;;;;;;;5.56;96.56;98579.72;5078040;28;20043;-93
2023/03/04 02:20:47;;;;;;;23.50;12.77;;;;;;;5.61;96.48;98578.81;5079220;28;20063;-91
2023/03/04 02:23:18;;;;;;;23.30;11.82;;;;;;;5.58;96.50;98574.44;5077803;28;20134;-91
2023/03/04 02:25:48;;;;;;;23.90;12.10;;;;;;;5.61;96.95;98584.09;5088158;28;20044;-93
2023/03/04 02:28:15;;;;;;;25.50;12.32;;;;;;;5.60;97.05;98585.00;5084236;28;20044;-93
2023/03/04 02:30:41;;;;;;;20.55;11.40;;;;;;;5.37;96.76;98548.28;5099312;28;20035;-93
2023/03/04 02:33:14;;;;;;;20.63;11.55;;;;;;;5.41;98.50;98579.88;5079982;28;20050;-91
2023/03/04 02:35:40;;;;;;;26.98;13.57;;;;;;;5.46;98.33;98578.06;5085730;28;20043;-92
2023/03/04 02:38:06;;;;;;;21.63;11.05;;;;;;;5.37;98.18;98567.63;5078133;28;20046;-93
2023/03/04 02:40:34;;;;;;;27.25;14.32;;;;;;;5.32;97.38;98553.59;5081972;28;20130;-92
2023/03/04 02:43:01;;;;;;;22.35;11.98;;;;;;;5.35;98.04;98564.97;5079354;28;20050;-92
2023/03/04 02:45:35;;;;;;;23.90;12.45;;;;;;;5.41;98.63;98573.75;5081796;28;20044;-93
2023/03/04 02:48:01;;;;;;;26.75;13.77;;;;;;;5.43;98.08;98579.88;5080022;28;20103;-91
2023/03/04 02:50:32;;;;;;;35.45;16.73;;;;;;;5.26;98.89;98575.63;5084127;28;20043;-94
2023/03/04 02:52:58;;;;;;;29.85;14.63;;;;;;;5.07;100.00;98564.34;5078903;28;20035;-92
2023/03/04 02:55:23;;;;;;;27.27;14.88;;;;;;;5.01;100.00;98539.81;5085016;28;20477;-93
2023/03/04 02:57:51;;;;;;;27.35;13.25;;;;;;;5.07;100.00;98559.09;5078806;28;20044;-92
2023/03/04 03:00:17;;;;;;;26.10;13.00;;;;;;;5.04;99.38;98547.72;5077616;28;20036;-94
2023/03/04 03:02:44;;;;;;;22.70;11.68;;;;;;;5.14;100.00;98565.22;5073425;28;20032;-92
2023/03/04 03:05:11;;;;;;;23.90;12.10;;;;;;;5.06;100.00;98538.91;5081519;28;20048;-93
2023/03/04 03:07:37;;;;;;;30.58;13.20;;;;;;;5.20;98.94;98538.75;5078705;28;20079;-93
2023/03/04 03:10:04;;;;;;;27.45;12.95;;;;;;;5.49;98.62;98578.06;5082150;28;20510;-93
2023/03/04 03:12:29;;;;;;;23.15;10.40;;;;;;;5.43;98.12;98566.69;5085413;28;20028;-92
2023/03/04 03:14:55;;;;;;;17.90;9.48;;;;;;;5.40;98.22;98556.16;5077181;28;20036;-91
2023/03/04 03:17:21;;;;;;;34.50;11.32;;;;;;;5.56;97.79;98570.94;5083009;28;20135;-93
2023/03/04 03:19:49;;;;;;;18.73;10.18;;;;;;;5.68;97.08;98576.13;5083355;28;20143;-92
2023/03/04 03:22:15;;;;;;;16.25;8.75;;;;;;;5.69;97.14;98569.06;5094805;28;20058;-92
2023/03/04 03:24:41;;;;;;;20.20;9.20;;;;;;;5.62;97.02;98551.56;5098849;28;20042;-93
2023/03/04 03:27:07;;;;;;;22.90;9.60;;;;;;;5.86;96.41;98574.16;5102059;28;20044;-93
2023/03/04 03:29:33;;;;;;;19.15;8.63;;;;;;;5.81;96.50;98565.41;5096495;28;20044;-93
2023/03/04 03:31:59;;;;;;;18.92;9.13;;;;;;;5.80;96.15;98563.66;5093943;28;20496;-93
2023/03/04 03:34:24;;;;;;;15.10;8.68;;;;;;;5.86;95.91;98567.13;5093831;28;20073;-94
2023/03/04 03:36:52;;;;;;;16.00;8.48;;;;;;;5.73;95.59;98544.41;5099394;28;20060;-92
2023/03/04 03:39:18;;;;;;;19.13;9.20;;;;;;;5.72;95.39;98534.72;5097095;28;20493;-93
2023/03/04 03:41:43;;;;;;;19.70;8.55;;;;;;;5.89;95.33;98556.50;5094727;28;20056;-92
2023/03/04 03:44:09;;;;;;;17.00;8.20;;;;;;;5.86;95.33;98561.84;5095964;28;20046;-92
2023/03/04 03:46:35;;;;;;;21.83;10.52;;;;;;;5.88;95.66;98564.47;5093089;28;20044;-93
2023/03/04 03:49:01;;;;;;;16.38;9.32;;;;;;;5.81;96.08;98560.13;5094897;28;20068;-92
2023/03/04 03:51:27;;;;;;;15.48;8.70;;;;;;;5.82;95.84;98568.03;5098914;28;20043;-94
2023/03/04 03:53:54;;;;;;;18.92;9.43;;;;;;;5.71;96.16;98552.31;5098293;28;20068;-92
2023/03/04 03:56:20;;;;;;;21.05;10.02;;;;;;;5.81;95.83;98563.63;5098326;28;20134;-92
2023/03/04 03:58:46;;;;;;;18.60;9.35;;;;;;;5.82;95.98;98562.75;5098347;28;20437;-93
2023/03/04 04:01:12;;;;;;;18.33;9.77;;;;;;;5.69;96.00;98548.81;5093995;28;20039;-93
2023/03/04 04:03:38;;;;;;;17.17;9.40;;;;;;;5.59;96.33;98535.75;5107276;28;20036;-93
2023/03/04 04:06:04;;;;;;;20.08;9.57;;;;;;;5.66;96.59;98566.44;5099861;28;20040;-90
2023/03/04 04:08:32;;;;;;;14.50;7.78;;;;;;;5.67;96.75;98571.72;5106983;28;20040;-92
2023/03/04 04:10:59;;;;;;;18.10;8.95;;;;;;;5.67;96.34;98573.47;5105285;28;20502;-92
2023/03/04 04:13:25;;;;;;;15.40;8.60;;;;;;;5.52;96.95;98550.78;5105866;28;20044;-92
2023/03/04 04:15:51;;;;;;;18.60;8.88;;;;;;;5.48;96.54;98549.91;5104839;28;20101;-93
2023/03/04 04:18:18;;;;;;;16.98;9.15;;;;;;;5.42;97.00;98552.66;5100257;28;20489;-92
2023/03/04 04:20:44;;;;;;;18.08;9.10;;;;;;;5.51;97.00;98573.63;5099969;28;20044;-92
2023/03/04 04:23:10;;;;;;;18.27;8.73;;;;;;;5.44;97.03;98566.66;5087582;28;20033;-92
2023/03/04 04:25:36;;;;;;;16.13;9.02;;;;;;;5.46;96.63;98554.31;5084753;28;20044;-91
2023/03/04 04:28:04;;;;;;;17.00;9.02;;;;;;;5.56;96.40;98571.81;5083170;28;20047;-93
2023/03/04 04:30:29;;;;;;;19.15;9.07;;;;;;;5.51;96.43;98559.59;5085807;28;20047;-93
2023/03/04 04:32:55;;;;;;;17.70;8.35;;;;;;;5.67;95.90;98582.25;5087350;28;20036;-93
2023/03/04 04:35:21;;;;;;;19.73;8.80;;;;;;;5.46;96.10;98545.56;5086666;28;20493;-94
2023/03/04 04:37:47;;;;;;;15.57;8.07;;;;;;;5.64;95.84;98581.41;5082641;28;20066;-93
2023/03/04 04:40:13;;;;;;;17.67;8.35;;;;;;;5.53;96.55;98563.06;5085001;28;20032;-92
2023/03/04 04:42:39;;;;;;;17.75;8.52;;;;;;;5.58;95.74;98560.41;5084952;28;20040;-92
2023/03/04 04:45:08;;;;;;;15.88;8.02;;;;;;;5.65;95.60;98562.06;5081352;28;20176;-92
2023/03/04 04:47:34;;;;;;;17.42;8.07;;;;;;;5.80;94.80;98564.53;5080375;28;20102;-93
2023/03/04 04:50:00;;;;;;;20.75;8.93;;;;;;;5.99;93.65;98572.28;5082485;28;20481;-93
2023/03/04 04:52:26;;;;;;;17.13;7.57;;;;;;;6.09;92.50;98563.34;5081884;28;20039;-93
2023/03/04 04:54:51;;;;;;;17.88;7.70;;;;;;;6.09;91.88;98555.44;5081603;28;20082;-93
2023/03/04 04:57:17;;;;;;;15.85;7.85;;;;;;;6.23;91.15;98565.84;5082278;28;20045;-94
2023/03/04 04:59:43;;;;;;;17.38;7.38;;;;;;;6.13;91.36;98546.56;5087708;28;20036;-94
2023/03/04 05:02:10;;;;;;;14.85;7.65;;;;;;;6.25;91.15;98562.28;5085501;28;20626;-93
2023/03/04 05:04:36;;;;;;;19.60;9.20;;;;;;;6.31;91.72;98579.78;5080194;28;20044;-93
2023/03/04 05:07:02;;;;;;;21.48;8.05;;;;;;;6.28;91.30;98564.00;5080264;28;20044;-92
2023/03/04 05:09:28;;;;;;;19.60;8.15;;;;;;;6.26;91.66;98576.34;5082609;28;20059;-92
2023/03/04 05:11:54;;;;;;;14.30;7.82;;;;;;;6.16;92.41;98555.34;5080820;28;20033;-93
2023/03/04 05:14:19;;;;;;;19.23;8.95;;;;;;;6.02;92.54;98530.88;5081851;28;20044;-93
2023/03/04 05:16:45;;;;;;;18.25;8.43;;;;;;;6.13;93.21;98557.13;5078609;28;20051;-92
2023/03/04 05:19:13;;;;;;;25.60;8.40;;;;;;;5.95;93.48;98523.94;5081433;28;20044;-93
2023/03/04 05:21:38;;;;;;;19.05;8.43;;;;;;;6.19;93.64;98569.41;5085735;28;20043;-94
2023/03/04 05:24:05;;;;;;;19.25;9.60;;;;;;;6.16;93.97;98575.59;5096476;28;20501;-93
2023/03/04 05:26:31;;;;;;;19.35;8.82;;;;;;;5.91;94.46;98538.88;5102956;28;20036;-92
2023/03/04 05:28:56;;;;;;;21.48;10.43;;;;;;;6.05;94.88;98559.88;5095663;28;20040;-93
2023/03/04 05:31:22;;;;;;;22.23;9.02;;;;;;;6.12;94.90;98563.31;5097550;28;20110;-90
2023/03/04 05:33:48;;;;;;;18.60;9.02;;;;;;;5.97;95.39;98541.50;5097982;28;20032;-93
2023/03/04 05:36:15;;;;;;;20.13;9.75;;;;;;;5.91;95.53;98535.38;5102643;28;20083;-92
2023/03/04 05:38:41;;;;;;;19.83;8.93;;;;;;;6.04;95.54;98558.13;5099591;28;20424;-92
2023/03/04 05:41:07;;;;;;;25.13;9.70;;;;;;;6.04;96.08;98549.34;5105047;28;20048;-92
2023/03/04 05:43:34;;;;;;;18.35;8.52;;;;;;;6.03;95.86;98553.75;5100391;28;20459;-91
2023/03/04 05:46:01;;;;;;;21.35;8.77;;;;;;;5.97;95.85;98548.53;5098439;28;20072;-91
2023/03/04 05:48:27;;;;;;;17.98;9.18;;;;;;;6.15;96.00;98576.47;5100428;28;20048;-93
2023/03/04 05:50:54;;;;;;;23.10;10.45;;;;;;;6.17;95.79;98574.69;5096523;28;20085;-93
2023/03/04 05:53:22;;;;;;;24.63;9.80;;;;;;;6.19;96.05;98578.19;5094387;28;20527;-91
2023/03/04 05:55:48;;;;;;;16.17;8.90;;;;;;;6.02;95.55;98543.22;5102478;28;20056;-92
2023/03/04 05:58:15;;;;;;;17.77;8.70;;;;;;;6.07;95.61;98555.47;5100429;28;20131;-92
2023/03/04 06:00:41;;;;;;;17.25;8.45;;;;;;;6.28;94.78;98585.97;5100816;28;20047;-91
2023/03/04 06:03:12;;;;;;;22.42;9.13;;;;;;;6.33;94.78;98589.47;5096816;28;20063;-92
2023/03/04 06:05:38;;;;;;;17.95;8.20;;;;;;;6.43;94.96;98599.91;5094186;28;20043;-92
2023/03/04 06:08:04;;;;;;;20.48;9.25;;;;;;;6.38;94.11;98576.19;5095249;28;20066;-91
2023/03/04 06:10:31;;;;;;;25.77;9.63;;;;;;;6.42;94.10;98580.53;5094714;28;20386;-91
2023/03/04 06:12:58;;;;;;;17.30;8.30;;;;;;;6.43;93.60;98565.56;5095575;28;20039;-92
2023/03/04 06:15:24;;;;;;;20.02;8.02;;;;;;;6.52;92.66;98561.00;5099080;28;20115;-90
2023/03/04 06:17:49;;;;;;;16.75;8.27;;;;;;;6.73;92.16;98573.03;5099594;28;20130;-91
2023/03/04 06:20:15;;;;;;;20.63;8.25;;;;;;;6.90;91.40;98579.84;5101470;28;20044;-94
2023/03/04 06:22:41;;;;;;;17.30;8.70;;;;;;;6.89;90.37;98563.09;5103791;28;20507;-92
2023/03/04 06:25:07;;;;;;;14.60;7.55;;;;;;;7.13;89.98;98582.13;5098211;28;20432;-92
2023/03/04 06:27:35;;;;;;;17.13;8.40;;;;;;;7.14;89.99;98584.75;5097900;28;20070;-93
2023/03/04 06:30:01;;;;;;;15.18;7.72;;;;;;;7.04;89.24;98569.91;5093814;28;20081;-93
2023/03/04 06:32:27;;;;;;;16.73;7.93;;;;;;;7.18;89.39;98591.75;5098477;28;20043;-91
2023/03/04 06:34:53;;;;;;;19.55;8.75;;;;;;;7.19;89.30;98598.75;5099595;28;20035;-90
2023/03/04 06:37:19;;;;;;;19.88;7.82;;;;;;;7.03;89.02;98557.63;5095656;28;20481;-93
2023/03/04 06:39:45;;;;;;;17.52;8.02;;;;;;;7.20;88.68;98579.38;5098318;28;20044;-95
2023/03/04 06:42:11;;;;;;;20.40;8.90;;;;;;;7.25;88.35;98591.63;5101919;28;20405;-94
2023/03/04 06:44:38;;;;;;;16.73;8.40;;;;;;;7.13;88.52;98569.75;5096020;28;20032;-93
2023/03/04 06:47:04;;;;;;;17.10;8.32;;;;;;;7.29;87.81;98593.34;5097459;28;20104;-93
2023/03/04 06:49:30;;;;;;;17.02;8.40;;;;;;;7.29;87.77;98598.63;5101356;28;20081;-92
2023/03/04 06:51:56;;;;;;;16.50;8.15;;;;;;;7.35;87.47;98598.50;5085390;28;20036;-90
2023/03/04 06:54:22;;;;;;;19.92;8.27;;;;;;;7.48;87.39;98613.28;5094163;28;20055;-92
2023/03/04 06:56:48;;;;;;;20.58;8.40;;;;;;;7.34;86.64;98588.84;5091304;28;20404;-92
2023/03/04 06:59:14;;;;;;;17.02;7.78;;;;;;;7.53;86.55;98608.78;5098238;28;20497;-92
2023/03/04 07:01:41;;;;;;;17.42;7.82;;;;;;;7.50;85.93;98594.72;5094208;28;20482;-91
2023/03/04 07:04:07;;;;;;;16.88;7.97;;;;;;;7.49;86.66;98601.78;5099637;28;20042;-92
2023/03/04 07:06:33;;;;;;;16.45;7.47;;;;;;;7.46;86.15;98601.88;5102455;28;20036;-94
2023/03/04 07:08:59;;;;;;;17.25;8.73;;;;;;;7.43;86.06;98614.25;5105417;28;20086;-93
2023/03/04 07:11:25;;;;;;;22.38;8.20;;;;;;;7.34;86.31;98604.72;5096056;28;20063;-92
2023/03/04 07:13:51;;;;;;;18.98;8.30;;;;;;;7.44;86.56;98629.22;5096474;28;20497;-94
2023/03/04 07:16:20;;;;;;;21.33;8.60;;;;;;;7.45;85.45;98625.69;5099817;28;20050;-93
2023/03/04 07:18:47;;;;;;;21.55;7.95;;;;;;;7.47;85.43;98635.34;5094970;28;20702;-94
2023/03/04 07:21:15;;;;;;;16.50;8.82;;;;;;;7.60;84.67;98647.47;5099552;28;20119;-94
2023/03/04 07:23:41;;;;;;;19.17;7.82;;;;;;;7.68;84.59;98635.88;5101656;28;20055;-94
2023/03/04 07:26:07;;;;;;;16.38;7.82;;;;;;;7.82;84.98;98650.59;5095380;28;20071;-94
2023/03/04 07:28:34;;;;;;;16.63;8.88;;;;;;;7.91;83.13;98646.03;5095611;28;20492;-92
2023/03/04 07:31:08;;;;;;;18.05;7.75;;;;;;;7.78;82.34;98614.50;5097171;28;20035;-92
2023/03/04 07:33:34;;;;;;;17.85;8.43;;;;;;;7.85;83.35;98624.97;5104984;28;20040;-93
2023/03/04 07:36:02;;;;;;;16.10;8.05;;;;;;;7.93;82.04;98602.75;5110387;28;20068;-93
2023/03/04 07:38:34;;;;;;;20.00;8.82;;;;;;;8.02;81.17;98617.59;5106338;28;20127;-94
2023/03/04 07:41:16;;;;;;;18.20;8.48;;;;;;;7.94;81.47;98620.41;5104130;28;20044;-93
2023/03/04 07:43:43;;;;;;;18.10;7.18;;;;;;;8.29;80.17;98655.91;5096884;28;20048;-93
2023/03/04 07:46:09;;;;;;;18.27;8.73;;;;;;;8.06;80.32;98608.69;5101108;28;20046;-93
2023/03/04 07:48:48;;;;;;;14.80;7.10;;;;;;;8.34;80.53;98638.16;5107044;28;20071;-94
2023/03/04 07:51:20;;;;;;;21.38;8.38;;;;;;;8.21;80.20;98607.50;5106037;28;20043;-93
2023/03/04 07:53:49;;;;;;;16.20;7.75;;;;;;;8.32;80.11;98608.16;5095662;28;20074;-94
2023/03/04 07:56:20;;;;;;;20.00;7.85;;;;;;;8.47;78.99;98616.75;5110447;28;20047;-92
2023/03/04 07:59:02;;;;;;;14.73;7.30;;;;;;;8.56;77.91;98620.06;5100498;28;20516;-94
2023/03/04 08:01:30;;;;;;;17.73;8.27;;;;;;;8.57;77.13;98615.66;5098800;28;20050;-93
2023/03/04 08:03:57;;;;;;;16.33;8.10;;;;;;;8.78;76.54;98628.44;5104590;28;20048;-93
2023/03/04 08:06:25;;;;;;;21.30;8.30;;;;;;;8.98;76.32;98621.81;5098120;28;20059;-92
2023/03/04 08:08:58;;;;;;;20.35;9.20;;;;;;;9.04;77.26;98619.00;5099858;28;20131;-94
2023/03/04 08:11:24;;;;;;;18.63;10.18;;;;;;;9.13;74.24;98629.41;5094176;28;20554;-93
2023/03/04 08:13:53;;;;;;;17.52;8.95;;;;;;;9.12;74.30;98622.34;5107505;28;20131;-95
2023/03/04 08:16:28;;;;;;;16.40;8.07;;;;;;;9.26;73.14;98616.72;5100208;28;20141;-93
2023/03/04 08:18:56;;;;;;;20.05;8.90;;;;;;;9.03;72.84;98590.75;5105203;28;20040;-93
2023/03/04 08:21:25;;;;;;;17.50;8.80;;;;;;;9.33;72.75;98628.94;5094008;28;20062;-94
2023/03/04 08:23:54;;;;;;;21.70;9.98;;;;;;;9.15;73.40;98603.72;5098130;28;20044;-92
2023/03/04 08:26:22;;;;;;;18.50;7.32;;;;;;;9.10;72.57;98602.94;5100380;28;20094;-93
2023/03/04 08:28:55;;;;;;;24.27;9.63;;;;;;;9.26;71.74;98611.41;5099929;28;20059;-93
2023/03/04 08:31:21;;;;;;;17.95;8.43;;;;;;;9.59;72.39;98636.25;5103930;28;20044;-92
2023/03/04 08:33:51;;;;;;;17.85;8.73;;;;;;;9.31;71.92;98598.03;5103455;28;20040;-93
2023/03/04 08:36:25;;;;;;;16.83;8.10;;;;;;;9.74;71.77;98640.28;5101876;28;20040;-92
2023/03/04 08:38:54;;;;;;;13.50;7.18;;;;;;;9.83;70.45;98608.19;5098634;28;20040;-94
2023/03/04 08:41:21;;;;;;;15.15;7.35;;;;;;;9.84;68.62;98598.41;5097394;28;20044;-92
2023/03/04 08:43:59;;;;;;;18.75;8.10;;;;;;;9.56;68.74;98596.47;5104623;28;20043;-94
2023/03/04 08:46:31;;;;;;;17.02;7.80;;;;;;;9.77;67.93;98624.28;5097358;28;20094;-94
2023/03/04 08:48:57;;;;;;;14.68;6.70;;;;;;;9.88;67.01;98621.31;5092850;28;20036;-96
2023/03/04 08:51:25;;;;;;;11.07;6.15;;;;;;;9.96;66.77;98624.66;5100638;28;20044;-94
2023/03/04 08:53:51;;;;;;;14.80;6.93;;;;;;;9.86;65.42;98631.13;5096377;28;20044;-93
2023/03/04 08:56:17;;;;;;;13.80;5.97;;;;;;;10.00;64.51;98621.00;5094016;28;20040;-93
2023/03/04 08:58:43;;;;;;;11.88;5.70;;;;;;;10.09;64.19;98614.56;5092593;28;20060;-94
2023/03/04 09:01:10;;;;;;;15.77;5.97;;;;;;;9.90;65.21;98611.53;5098368;28;20052;-93
2023/03/04 09:03:39;;;;;;;10.95;6.43;;;;;;;9.94;65.19;98609.69;5105168;28;20044;-92
2023/03/04 09:06:06;;;;;;;10.38;5.53;;;;;;;9.98;65.41;98614.00;5105455;28;20044;-93
2023/03/04 09:08:33;;;;;;;12.18;5.95;;;;;;;10.31;63.47;98625.50;5094814;28;20568;-92
2023/03/04 09:11:03;;;;;;;13.77;6.40;;;;;;;10.28;65.48;98649.50;5099373;28;20027;-93
2023/03/04 09:13:30;;;;;;;12.27;6.40;;;;;;;10.53;63.44;98632.88;5094627;28;20121;-92
2023/03/04 09:15:56;;;;;;;14.80;6.10;;;;;;;10.45;61.75;98622.44;5101687;28;20089;-90
2023/03/04 09:18:23;;;;;;;13.27;5.82;;;;;;;10.51;64.03;98627.59;5104678;28;20044;-94
2023/03/04 09:20:50;;;;;;;11.75;5.57;;;;;;;10.68;61.88;98617.31;5093978;28;20060;-95
2023/03/04 09:23:17;;;;;;;12.57;5.47;;;;;;;10.60;61.79;98626.44;5088464;28;20401;-91
2023/03/04 09:25:48;;;;;;;10.90;6.20;;;;;;;10.75;61.42;98623.31;5081513;28;20040;-92
2023/03/04 09:28:14;;;;;;;14.70;6.03;;;;;;;10.84;62.63;98624.84;5082860;28;20501;-94
2023/03/04 09:30:41;;;;;;;10.10;5.68;;;;;;;10.49;63.92;98608.13;5085190;28;20044;-93
2023/03/04 09:33:07;;;;;;;10.95;5.32;;;;;;;10.98;61.02;98637.72;5081719;28;20063;-95
2023/03/04 09:35:33;;;;;;;12.80;6.10;;;;;;;11.01;60.83;98622.53;5083834;28;20497;-94
2023/03/04 09:37:58;;;;;;;10.05;5.18;;;;;;;10.95;60.42;98612.09;5086098;28;20497;-94
2023/03/04 09:40:27;;;;;;;15.45;5.68;;;;;;;10.98;60.10;98609.31;5086033;28;20082;-92
2023/03/04 09:42:58;;;;;;;16.17;6.10;;;;;;;10.67;62.49;98620.03;5083930;28;20380;-94
2023/03/04 09:45:30;;;;;;;11.65;5.57;;;;;;;11.01;60.79;98629.63;5079662;28;20114;-93
2023/03/04 09:47:56;;;;;;;13.80;6.25;;;;;;;10.67;60.88;98626.22;5083337;28;20043;-93
2023/03/04 09:50:22;;;;;;;11.45;5.88;;;;;;;10.77;61.64;98620.63;5083007;28;20481;-94
2023/03/04 09:53:02;;;;;;;11.07;5.40;;;;;;;10.67;60.85;98609.41;5080729;28;20075;-93
2023/03/04 09:55:33;;;;;;;12.48;6.05;;;;;;;10.81;61.78;98625.81;5080675;28;20032;-93
2023/03/04 09:58:06;;;;;;;12.18;6.07;;;;;;;10.65;60.47;98627.19;5080569;28;20036;-93
2023/03/04 10:00:37;;;;;;;10.25;5.10;;;;;;;10.62;59.90;98598.03;5078200;28;20042;-91
2023/03/04 10:03:12;;;;;;;12.65;6.32;;;;;;;10.26;61.53;98616.75;5081374;28;20042;-93
2023/03/04 10:05:44;;;;;;;10.52;5.32;;;;;;;10.45;62.06;98602.06;5079263;28;20051;-92
2023/03/04 10:08:37;;;;;;;8.82;5.28;;;;;;;10.71;60.02;98621.66;5076577;28;20070;-93
2023/03/04 10:11:09;;;;;;;11.55;5.43;;;;;;;10.90;60.69;98608.69;5074411;28;20047;-91
2023/03/04 10:13:43;;;;;;;9.07;4.97;;;;;;;10.62;60.36;98609.50;5081178;28;20421;-88
2023/03/04 10:16:15;;;;;;;9.65;5.25;;;;;;;10.78;59.75;98603.72;5081785;28;20050;-90
2023/03/04 10:18:47;;;;;;;13.40;5.43;;;;;;;10.66;61.40;98620.94;5074023;28;20389;-92
2023/03/04 10:21:22;;;;;;;11.00;5.40;;;;;;;10.78;61.24;98595.75;5078101;28;20048;-93
2023/03/04 10:23:48;;;;;;;10.00;5.30;;;;;;;10.91;60.57;98599.81;5085280;28;20509;-91
2023/03/04 10:26:19;;;;;;;11.57;5.07;;;;;;;10.50;60.27;98585.13;5073538;28;20502;-91
2023/03/04 10:28:48;;;;;;;11.88;5.18;;;;;;;10.68;60.54;98564.13;5080854;28;20402;-91
2023/03/04 10:31:21;;;;;;;13.10;5.37;;;;;;;10.64;61.58;98618.31;5078618;28;20043;-93
2023/03/04 10:33:47;;;;;;;9.23;5.20;;;;;;;10.91;60.98;98602.47;5079771;28;20043;-93
2023/03/04 10:36:33;;;;;;;10.30;4.95;;;;;;;10.61;60.88;98596.28;5081860;28;20044;-91
2023/03/04 10:39:01;;;;;;;11.52;5.97;;;;;;;10.67;61.48;98602.28;5084030;28;20169;-93
2023/03/04 10:41:29;;;;;;;10.75;5.05;;;;;;;10.87;60.91;98598.16;5073791;28;20481;-92
2023/03/04 10:44:02;;;;;;;11.00;6.32;;;;;;;10.82;60.65;98598.31;5085636;28;20036;-93
2023/03/04 10:46:29;;;;;;;14.82;6.40;;;;;;;10.71;61.56;98592.41;5082034;28;20039;-95
2023/03/04 10:48:55;;;;;;;11.57;5.80;;;;;;;10.54;61.81;98577.00;5077945;28;20040;-92
2023/03/04 10:51:23;;;;;;;16.33;6.88;;;;;;;10.63;62.12;98581.16;5079759;28;20428;-92
2023/03/04 10:53:55;;;;;;;13.05;6.88;;;;;;;10.58;61.65;98569.78;5075708;28;20135;-92
2023/03/04 10:56:32;;;;;;;12.70;6.45;;;;;;;10.85;62.02;98582.22;5078772;28;20060;-92
2023/03/04 10:59:30;;;;;;;14.90;5.85;;;;;;;10.69;61.14;98584.50;5081784;28;20497;-92
2023/03/04 11:01:56;;;;;;;12.68;5.72;;;;;;;10.80;62.06;98568.22;5078251;28;20028;-91
2023/03/04 11:04:24;;;;;;;10.02;5.60;;;;;;;10.81;61.09;98583.25;5081305;28;20071;-91
2023/03/04 11:06:50;;;;;;;9.68;5.38;;;;;;;10.82;62.40;98584.09;5079950;28;20035;-91
2023/03/04 11:09:21;;;;;;;10.23;5.25;;;;;;;10.68;61.94;98596.03;5078707;28;20134;-93
2023/03/04 11:11:50;;;;;;;12.00;5.25;;;;;;;10.75;62.17;98566.59;5074187;28;20036;-93
2023/03/04 11:14:23;;;;;;;11.75;5.97;;;;;;;11.08;62.05;98567.31;5080521;28;20301;-93
2023/03/04 11:16:55;;;;;;;12.02;5.28;;;;;;;11.38;60.25;98577.88;5077967;28;20060;-93
2023/03/04 11:19:23;;;;;;;11.23;5.43;;;;;;;11.38;59.65;98561.91;5087429;28;20076;-93
2023/03/04 11:21:51;;;;;;;10.25;5.20;;;;;;;10.95;60.75;98564.22;5091327;28;20493;-94
2023/03/04 11:24:39;;;;;;;11.18;6.38;;;;;;;11.04;61.01;98563.03;5110738;27;20379;-94
2023/03/04 11:27:16;;;;;;;12.23;5.85;;;;;;;11.03;60.42;98545.31;5099621;28;20063;-92
2023/03/04 11:29:47;;;;;;;13.15;5.72;;;;;;;11.23;59.79;98582.81;5094286;28;20738;-93
2023/03/04 11:32:19;;;;;;;10.18;5.65;;;;;;;11.26;61.88;98553.41;5095310;28;20051;-94